Mississippi State University, Mississippi
Current Conditions -  °F | °C
As of 10:15 PM on Sunday 21 Dec 2014 (Local Time) from KSTF Reporting Station
Haze Haze  
Wind Chill: 43°   Ceiling: 300
Heat Index: 46°   Visibility: 1.5mi
Dew Point: 45°   Wind: 7mph
Humidity: 93%   Direction: 140°SE
Pressure: 30"   Gusts: NA
Location:  33.4516°N, 88.7888°W
Report Text: KSTF 220415Z AUTO 14006KT 1 1/2SM BR OVC003 08/07 A3000 RMK AO2
Loading
Personal Weather Stations






























Interactive Weather Map New forecast layout! Learn more

10-Day Weather Forecast

Advertisements
Track Severe Weather on mobile